Terminal Aerodrome Forecast
Issued by NWS Topeka, KS

Home | Current Version | Previous Version | Text Only | Print | Product List | Glossary Off
Versions: 1 2 3 4 5 6 7 8 9 10 11 12

000
FTUS43 KTOP 221123
TAFTOP
TAF
KTOP 221123Z 2212/2312 17011KT P6SM SCT120 WS014/19045KT
     FM221400 17011KT P6SM FEW120
     FM221700 17012G21KT P6SM FEW040
     FM230000 16008KT P6SM FEW250=

USA.gov is the U.S. government's official web portal to all federal, state and local government web resources and services.